Time;durP1;ratioP1;P1;durP2;ratioP2;P2;SDS_P1;SDS_P2;PMS_P1;PMS_P2;Temp;Humidity;BMP_temperature;BMP_pressure;BME280_temperature;BME280_humidity;BME280_pressure;Samples;Min_cycle;Max_cycle;Signal;HPM_P1;HPM_P2
2024/01/23 06:02:54;;;;;;;4.50;2.33;;;;;;;;;;4970136;28;20541;-76
2024/01/23 06:05:20;;;;;;;6.47;1.87;;;;;;;;;;4972821;28;20412;-76
2024/01/23 06:07:49;;;;;;;16.73;3.20;;;;;;;;;;4988314;28;20867;-76
2024/01/23 06:10:16;;;;;;;15.63;3.87;;;;;;;;;;4976610;28;20921;-76
2024/01/23 06:12:42;;;;;;;9.40;2.87;;;;;;;;;;4976784;28;20515;-78
2024/01/23 06:15:08;;;;;;;4.40;2.10;;;;;;;;;;4976203;28;20415;-78
2024/01/23 06:17:34;;;;;;;14.13;2.50;;;;;;;;;;4977291;28;20408;-75
2024/01/23 06:20:02;;;;;;;11.33;2.50;;;;;;;;;;4994819;28;20423;-76
2024/01/23 06:22:28;;;;;;;9.10;2.07;;;;;;;;;;4985063;28;20926;-77
2024/01/23 06:25:00;;;;;;;6.87;2.07;;;;;;;;;;4977288;28;20422;-77
2024/01/23 06:27:26;;;;;;;11.60;2.27;;;;;;;;;;4976826;28;20458;-77
2024/01/23 06:29:52;;;;;;;22.53;2.70;;;;;;;;;;4976541;28;20420;-77
2024/01/23 06:32:18;;;;;;;14.97;3.30;;;;;;;;;;4976744;28;20432;-77
2024/01/23 06:34:44;;;;;;;7.40;1.73;;;;;;;;;;4975116;28;20479;-77
2024/01/23 06:37:10;;;;;;;9.93;2.10;;;;;;;;;;4975323;28;20467;-77
2024/01/23 06:39:36;;;;;;;8.33;2.23;;;;;;;;;;4976451;28;20427;-77
2024/01/23 06:42:02;;;;;;;4.50;2.20;;;;;;;;;;4974927;28;20955;-77
2024/01/23 06:44:27;;;;;;;7.60;2.67;;;;;;;;;;4978183;28;20408;-77
2024/01/23 06:46:53;;;;;;;11.10;2.57;;;;;;;;;;4985504;28;20915;-77
2024/01/23 06:49:20;;;;;;;10.43;3.17;;;;;;;;;;4993539;28;20468;-77
2024/01/23 06:51:46;;;;;;;7.40;1.90;;;;;;;;;;4993651;28;20419;-77
2024/01/23 06:54:12;;;;;;;8.80;2.60;;;;;;;;;;4991458;28;20512;-76
2024/01/23 06:56:38;;;;;;;13.03;2.70;;;;;;;;;;4991223;28;20428;-76
2024/01/23 06:59:05;;;;;;;19.73;2.73;;;;;;;;;;4984883;28;20420;-77
2024/01/23 07:01:31;;;;;;;5.33;2.20;;;;;;;;;;4963595;28;20464;-77
2024/01/23 07:03:57;;;;;;;6.83;2.40;;;;;;;;;;4959140;29;20429;-77
2024/01/23 07:06:23;;;;;;;10.97;2.00;;;;;;;;;;4971095;29;20525;-77
2024/01/23 07:08:49;;;;;;;10.63;3.10;;;;;;;;;;4974630;29;20460;-76
2024/01/23 07:11:15;;;;;;;9.20;2.77;;;;;;;;;;4990428;28;20435;-77
2024/01/23 07:13:41;;;;;;;10.80;2.37;;;;;;;;;;4986118;28;20446;-78
2024/01/23 07:16:07;;;;;;;10.40;2.40;;;;;;;;;;4977943;28;20930;-77
2024/01/23 07:18:33;;;;;;;6.93;2.57;;;;;;;;;;4991838;28;20459;-77
2024/01/23 07:20:59;;;;;;;3.03;1.73;;;;;;;;;;4998057;28;20442;-77
2024/01/23 07:23:25;;;;;;;7.03;2.60;;;;;;;;;;4997221;28;20411;-76
2024/01/23 07:25:51;;;;;;;12.77;2.87;;;;;;;;;;4985829;28;20419;-75
2024/01/23 07:28:17;;;;;;;9.23;2.00;;;;;;;;;;4992041;28;20473;-75
2024/01/23 07:30:43;;;;;;;6.77;1.90;;;;;;;;;;4991814;28;20451;-75
2024/01/23 07:33:09;;;;;;;12.33;2.73;;;;;;;;;;4982776;28;20521;-75
2024/01/23 07:35:35;;;;;;;4.53;1.93;;;;;;;;;;4973331;29;20427;-75
2024/01/23 07:38:01;;;;;;;7.50;2.07;;;;;;;;;;4973869;29;20449;-75
2024/01/23 07:40:27;;;;;;;14.57;2.63;;;;;;;;;;4990712;28;20452;-75
2024/01/23 07:42:53;;;;;;;9.23;2.50;;;;;;;;;;4975005;29;20411;-75
2024/01/23 07:45:19;;;;;;;8.30;2.23;;;;;;;;;;4974539;29;20444;-75
2024/01/23 07:47:45;;;;;;;11.63;2.63;;;;;;;;;;4975237;28;20480;-75
2024/01/23 07:50:12;;;;;;;15.37;2.83;;;;;;;;;;4975369;28;20436;-75
2024/01/23 07:52:38;;;;;;;7.53;2.40;;;;;;;;;;4972269;28;20440;-75
2024/01/23 07:55:04;;;;;;;4.70;2.50;;;;;;;;;;4970789;29;20475;-76
2024/01/23 07:57:30;;;;;;;9.43;2.37;;;;;;;;;;4974860;28;20419;-76
2024/01/23 07:59:56;;;;;;;4.10;2.30;;;;;;;;;;4982994;28;20676;-72
2024/01/23 08:02:22;;;;;;;6.00;1.73;;;;;;;;;;4983062;28;20455;-76
2024/01/23 08:04:48;;;;;;;9.30;2.03;;;;;;;;;;4979998;28;20462;-75
2024/01/23 08:07:14;;;;;;;5.73;2.50;;;;;;;;;;4973632;28;20412;-75
2024/01/23 08:09:40;;;;;;;6.20;1.90;;;;;;;;;;4965950;28;20420;-76
2024/01/23 08:12:06;;;;;;;18.03;3.97;;;;;;;;;;4962503;28;20433;-76
2024/01/23 08:14:32;;;;;;;12.87;3.73;;;;;;;;;;4956316;28;20413;-76
2024/01/23 08:16:58;;;;;;;10.67;3.07;;;;;;;;;;4961475;28;20551;-75
2024/01/23 08:19:24;;;;;;;7.33;2.23;;;;;;;;;;4970244;28;20515;-75
2024/01/23 08:21:50;;;;;;;12.40;2.40;;;;;;;;;;4958264;28;20846;-74
2024/01/23 08:24:16;;;;;;;5.27;2.33;;;;;;;;;;4958614;29;20459;-75
2024/01/23 08:26:42;;;;;;;9.47;2.90;;;;;;;;;;4956874;29;20479;-75
2024/01/23 08:29:08;;;;;;;5.50;2.73;;;;;;;;;;4959872;28;20882;-75
2024/01/23 08:31:34;;;;;;;6.43;2.40;;;;;;;;;;4960273;28;20831;-76
2024/01/23 08:34:00;;;;;;;5.43;1.93;;;;;;;;;;4959242;28;20803;-75
2024/01/23 08:36:26;;;;;;;4.57;2.10;;;;;;;;;;4955234;29;20416;-75
2024/01/23 08:38:52;;;;;;;7.13;2.40;;;;;;;;;;4956269;28;20488;-75
2024/01/23 08:41:18;;;;;;;4.87;1.90;;;;;;;;;;4955130;29;20432;-73
2024/01/23 08:43:44;;;;;;;7.10;1.70;;;;;;;;;;4954649;29;20412;-73
2024/01/23 08:46:10;;;;;;;11.43;2.50;;;;;;;;;;4957251;28;20427;-75
2024/01/23 08:48:36;;;;;;;4.30;2.63;;;;;;;;;;4972550;28;20460;-76
2024/01/23 08:51:02;;;;;;;2.97;1.83;;;;;;;;;;4960125;28;20470;-76
2024/01/23 08:53:28;;;;;;;4.57;1.80;;;;;;;;;;4966223;28;20424;-76
2024/01/23 08:55:54;;;;;;;6.83;2.03;;;;;;;;;;4973302;28;20491;-76
2024/01/23 08:58:20;;;;;;;7.43;2.67;;;;;;;;;;4971205;28;20451;-74
2024/01/23 09:00:46;;;;;;;6.00;1.67;;;;;;;;;;4973204;28;20432;-76
2024/01/23 09:03:12;;;;;;;15.13;2.20;;;;;;;;;;4971073;28;20432;-74
2024/01/23 09:05:38;;;;;;;7.80;3.33;;;;;;;;;;4971893;28;20503;-73
2024/01/23 09:08:04;;;;;;;11.20;2.40;;;;;;;;;;4971713;28;20468;-74
2024/01/23 09:10:30;;;;;;;10.27;2.53;;;;;;;;;;4964927;28;20791;-73
2024/01/23 09:12:56;;;;;;;10.00;2.77;;;;;;;;;;4952893;29;20500;-74
2024/01/23 09:15:22;;;;;;;18.37;3.57;;;;;;;;;;4954309;29;20420;-75
2024/01/23 09:17:48;;;;;;;8.53;2.97;;;;;;;;;;4968738;28;20422;-74
2024/01/23 09:20:14;;;;;;;6.60;2.57;;;;;;;;;;4972291;28;20411;-75
2024/01/23 09:22:41;;;;;;;5.63;2.30;;;;;;;;;;4973284;28;20443;-74
2024/01/23 09:25:07;;;;;;;6.10;2.53;;;;;;;;;;4959471;28;20436;-74
2024/01/23 09:27:33;;;;;;;4.63;2.10;;;;;;;;;;4955215;29;21038;-75
2024/01/23 09:29:59;;;;;;;7.33;2.50;;;;;;;;;;4966214;28;20784;-76
2024/01/23 09:32:25;;;;;;;6.40;2.33;;;;;;;;;;4971778;28;20436;-74
2024/01/23 09:34:51;;;;;;;8.93;1.90;;;;;;;;;;4967908;28;20431;-74
2024/01/23 09:37:17;;;;;;;5.83;1.93;;;;;;;;;;4957558;29;20416;-74
2024/01/23 09:39:43;;;;;;;8.20;2.10;;;;;;;;;;4965575;28;20436;-74
2024/01/23 09:42:10;;;;;;;6.30;2.93;;;;;;;;;;4953904;28;20498;-76
2024/01/23 09:44:39;;;;;;;7.23;2.17;;;;;;;;;;4974159;28;20412;-77
2024/01/23 09:47:05;;;;;;;2.40;1.63;;;;;;;;;;4957517;28;20570;-75
2024/01/23 09:49:32;;;;;;;5.23;2.10;;;;;;;;;;4958415;28;20574;-75
2024/01/23 09:52:01;;;;;;;3.47;2.00;;;;;;;;;;4955943;29;20779;-74
2024/01/23 09:54:27;;;;;;;5.97;2.30;;;;;;;;;;4960093;28;20553;-74
2024/01/23 09:56:53;;;;;;;11.80;2.20;;;;;;;;;;4974678;28;20424;-75
2024/01/23 09:59:21;;;;;;;11.33;1.97;;;;;;;;;;4970481;28;20424;-75
2024/01/23 10:01:47;;;;;;;9.40;2.17;;;;;;;;;;4956248;28;20460;-75
2024/01/23 10:04:15;;;;;;;4.67;1.80;;;;;;;;;;4957065;28;20427;-74
2024/01/23 10:06:41;;;;;;;6.47;2.23;;;;;;;;;;4956971;29;20417;-75
2024/01/23 10:09:07;;;;;;;6.70;2.03;;;;;;;;;;4967129;28;20467;-75
2024/01/23 10:11:34;;;;;;;2.80;1.87;;;;;;;;;;4958425;28;20437;-75
2024/01/23 10:14:01;;;;;;;4.30;1.50;;;;;;;;;;4960079;28;20459;-75
2024/01/23 10:16:27;;;;;;;4.53;1.90;;;;;;;;;;4957229;29;20415;-74
2024/01/23 10:18:54;;;;;;;3.53;1.43;;;;;;;;;;4965812;28;20476;-72
2024/01/23 10:21:21;;;;;;;3.47;1.47;;;;;;;;;;4956604;29;20445;-72
2024/01/23 10:23:48;;;;;;;8.77;1.50;;;;;;;;;;4964421;28;20420;-73
2024/01/23 10:26:15;;;;;;;3.50;1.20;;;;;;;;;;4973866;28;20426;-72
2024/01/23 10:28:43;;;;;;;3.27;1.27;;;;;;;;;;4975276;28;20570;-73
2024/01/23 10:31:09;;;;;;;5.43;1.57;;;;;;;;;;4974321;28;20454;-72
2024/01/23 10:33:37;;;;;;;5.37;1.40;;;;;;;;;;4975478;28;20416;-73
2024/01/23 10:36:05;;;;;;;4.87;2.40;;;;;;;;;;4969877;28;20542;-74
2024/01/23 10:38:31;;;;;;;3.17;1.40;;;;;;;;;;4965478;28;20431;-74
2024/01/23 10:40:59;;;;;;;6.30;2.20;;;;;;;;;;4968643;28;20460;-74
2024/01/23 10:43:27;;;;;;;3.17;2.23;;;;;;;;;;4971606;28;20412;-74
2024/01/23 10:45:54;;;;;;;5.27;1.70;;;;;;;;;;4978367;28;20698;-74
2024/01/23 10:48:20;;;;;;;8.10;1.90;;;;;;;;;;4975842;28;20456;-75
2024/01/23 10:50:49;;;;;;;5.43;1.80;;;;;;;;;;4975078;28;20443;-75
2024/01/23 10:53:15;;;;;;;7.03;2.53;;;;;;;;;;4979239;28;20416;-76
2024/01/23 10:55:43;;;;;;;8.03;2.60;;;;;;;;;;4956845;28;20413;-72
2024/01/23 10:58:42;;;;;;;10.87;2.40;;;;;;;;;;4955123;29;21100;-73
2024/01/23 11:01:09;;;;;;;8.40;2.93;;;;;;;;;;4951621;28;20843;-73
2024/01/23 11:03:36;;;;;;;3.50;2.07;;;;;;;;;;4974185;28;20480;-76
2024/01/23 11:06:04;;;;;;;8.47;2.87;;;;;;;;;;4974541;29;20423;-77
2024/01/23 11:08:42;;;;;;;9.43;2.60;;;;;;;;;;4986082;28;20550;-76
2024/01/23 11:11:14;;;;;;;5.23;2.27;;;;;;;;;;4979130;28;20449;-76
2024/01/23 11:13:47;;;;;;;12.10;2.47;;;;;;;;;;4980861;28;20423;-78
2024/01/23 11:16:13;;;;;;;10.23;2.90;;;;;;;;;;4980865;28;20483;-78
2024/01/23 11:18:40;;;;;;;6.10;2.10;;;;;;;;;;4988699;28;20431;-76
2024/01/23 11:21:09;;;;;;;13.00;3.77;;;;;;;;;;4992322;28;20439;-76
2024/01/23 11:23:45;;;;;;;13.50;2.73;;;;;;;;;;4989311;28;20808;-76
2024/01/23 11:26:19;;;;;;;25.90;3.83;;;;;;;;;;4971906;29;20443;-77
2024/01/23 11:28:50;;;;;;;12.60;2.57;;;;;;;;;;4970414;28;20452;-75
2024/01/23 11:31:20;;;;;;;13.13;2.40;;;;;;;;;;4970948;28;20443;-78
2024/01/23 11:33:51;;;;;;;13.73;3.50;;;;;;;;;;4990425;28;20451;-78
2024/01/23 11:36:24;;;;;;;12.23;3.40;;;;;;;;;;4987573;28;20416;-80
2024/01/23 11:38:51;;;;;;;10.33;2.90;;;;;;;;;;4978470;28;20412;-78
2024/01/23 11:41:24;;;;;;;19.10;4.13;;;;;;;;;;4982548;28;20448;-79
2024/01/23 11:43:54;;;;;;;16.97;2.70;;;;;;;;;;4989029;28;20416;-81
2024/01/23 11:46:22;;;;;;;15.47;2.60;;;;;;;;;;4981170;28;20428;-80
2024/01/23 11:48:48;;;;;;;7.13;2.60;;;;;;;;;;4969278;29;20951;-80
2024/01/23 11:51:15;;;;;;;21.73;7.17;;;;;;;;;;4966071;29;20473;-78
2024/01/23 11:53:42;;;;;;;9.23;2.67;;;;;;;;;;4967845;29;20405;-77
2024/01/23 11:56:11;;;;;;;15.87;4.40;;;;;;;;;;4968293;29;20413;-80
2024/01/23 11:58:38;;;;;;;14.10;3.70;;;;;;;;;;4975976;28;20412;-77
2024/01/23 12:01:05;;;;;;;12.80;3.63;;;;;;;;;;4975942;28;20460;-78
2024/01/23 12:03:31;;;;;;;19.47;3.63;;;;;;;;;;4976331;28;20412;-79
2024/01/23 12:05:57;;;;;;;19.10;3.70;;;;;;;;;;4973391;28;20419;-79
2024/01/23 12:08:23;;;;;;;14.47;3.50;;;;;;;;;;4974832;28;20456;-78
2024/01/23 12:10:52;;;;;;;10.63;3.30;;;;;;;;;;4964460;28;21078;-78
2024/01/23 12:13:22;;;;;;;25.97;4.33;;;;;;;;;;4958081;29;20528;-78
2024/01/23 12:15:48;;;;;;;10.00;3.13;;;;;;;;;;4965317;28;20408;-77
2024/01/23 12:18:14;;;;;;;13.30;4.03;;;;;;;;;;4979885;28;20415;-77
2024/01/23 12:20:47;;;;;;;16.80;3.07;;;;;;;;;;4975726;28;20477;-76
2024/01/23 12:23:14;;;;;;;5.60;2.70;;;;;;;;;;4974665;28;20467;-77
2024/01/23 12:25:40;;;;;;;12.17;3.30;;;;;;;;;;4974989;28;20412;-76
2024/01/23 12:28:06;;;;;;;15.93;2.93;;;;;;;;;;4975357;28;20471;-76
2024/01/23 12:30:32;;;;;;;17.70;3.60;;;;;;;;;;4962357;28;20460;-77
2024/01/23 12:32:59;;;;;;;7.80;2.80;;;;;;;;;;4955756;29;20784;-77
2024/01/23 12:35:25;;;;;;;13.97;2.90;;;;;;;;;;4955850;28;20420;-76
2024/01/23 12:37:51;;;;;;;8.30;3.40;;;;;;;;;;4954479;29;20567;-77
2024/01/23 12:40:17;;;;;;;13.20;3.17;;;;;;;;;;4956802;28;20428;-77
2024/01/23 12:42:44;;;;;;;11.13;2.97;;;;;;;;;;4956634;28;20416;-77
2024/01/23 12:45:12;;;;;;;9.07;2.60;;;;;;;;;;4975201;28;20424;-77
2024/01/23 12:47:38;;;;;;;15.40;2.97;;;;;;;;;;4975901;28;20471;-76
2024/01/23 12:50:05;;;;;;;18.10;3.30;;;;;;;;;;4978063;28;20412;-77
2024/01/23 12:52:31;;;;;;;15.60;2.87;;;;;;;;;;4975388;28;20430;-76
2024/01/23 12:54:57;;;;;;;17.80;3.10;;;;;;;;;;4977161;28;20412;-77
2024/01/23 12:57:23;;;;;;;11.53;3.30;;;;;;;;;;4977564;28;20701;-76
2024/01/23 12:59:49;;;;;;;11.30;2.50;;;;;;;;;;4970523;28;20436;-77
2024/01/23 13:02:15;;;;;;;9.50;3.10;;;;;;;;;;4957401;28;21014;-77
2024/01/23 13:04:41;;;;;;;8.10;2.77;;;;;;;;;;4957563;29;20499;-77
2024/01/23 13:07:08;;;;;;;8.30;3.20;;;;;;;;;;4956228;29;20456;-77
2024/01/23 13:09:34;;;;;;;10.50;3.60;;;;;;;;;;4966172;28;20482;-77
2024/01/23 13:12:00;;;;;;;7.80;2.40;;;;;;;;;;4975855;28;20534;-77
2024/01/23 13:14:28;;;;;;;11.80;2.80;;;;;;;;;;4975391;28;20416;-75
2024/01/23 13:16:54;;;;;;;10.73;3.43;;;;;;;;;;4955782;28;20429;-77
2024/01/23 13:19:20;;;;;;;16.17;2.80;;;;;;;;;;4956545;29;20424;-76
2024/01/23 13:21:46;;;;;;;9.27;4.20;;;;;;;;;;4957644;29;20805;-77
2024/01/23 13:24:12;;;;;;;5.90;2.30;;;;;;;;;;4956689;29;20928;-77
2024/01/23 13:26:40;;;;;;;21.33;3.03;;;;;;;;;;4959502;28;20439;-76
2024/01/23 13:29:08;;;;;;;10.90;3.90;;;;;;;;;;4958762;28;20468;-77
2024/01/23 13:31:35;;;;;;;9.23;2.67;;;;;;;;;;4956165;28;20433;-77
2024/01/23 13:34:01;;;;;;;11.13;2.83;;;;;;;;;;4970479;28;20429;-77
2024/01/23 13:36:27;;;;;;;6.07;2.70;;;;;;;;;;4956013;28;20912;-77
2024/01/23 13:38:53;;;;;;;7.80;2.87;;;;;;;;;;4955215;29;20468;-77
2024/01/23 13:41:19;;;;;;;9.70;2.80;;;;;;;;;;4954733;29;20440;-77
2024/01/23 13:43:46;;;;;;;7.10;2.43;;;;;;;;;;4954691;28;20500;-77
2024/01/23 13:46:11;;;;;;;18.83;3.63;;;;;;;;;;4953035;29;20456;-77
2024/01/23 13:48:38;;;;;;;14.13;3.10;;;;;;;;;;4952957;29;20888;-77
2024/01/23 13:51:04;;;;;;;14.20;2.73;;;;;;;;;;4954580;29;21148;-77
2024/01/23 13:53:30;;;;;;;9.43;3.50;;;;;;;;;;4955513;29;20409;-77
2024/01/23 13:55:56;;;;;;;6.20;2.70;;;;;;;;;;4955569;28;20424;-77
2024/01/23 13:58:22;;;;;;;16.57;3.27;;;;;;;;;;4960278;29;20409;-77
2024/01/23 14:00:48;;;;;;;12.60;3.00;;;;;;;;;;4969916;29;20499;-76
2024/01/23 14:03:14;;;;;;;16.93;3.23;;;;;;;;;;4970325;29;20412;-77
2024/01/23 14:05:40;;;;;;;12.00;3.10;;;;;;;;;;4970583;29;20431;-76
2024/01/23 14:08:07;;;;;;;18.20;3.50;;;;;;;;;;4971517;29;20470;-76
2024/01/23 14:10:34;;;;;;;15.93;3.27;;;;;;;;;;4972292;29;20425;-76
2024/01/23 14:13:00;;;;;;;14.90;2.97;;;;;;;;;;4971438;28;20477;-76
2024/01/23 14:15:26;;;;;;;11.37;2.70;;;;;;;;;;4967532;29;20416;-76
2024/01/23 14:17:52;;;;;;;14.40;2.43;;;;;;;;;;4963657;29;20444;-77
2024/01/23 14:20:18;;;;;;;6.63;2.60;;;;;;;;;;4962553;29;20432;-77
2024/01/23 14:22:45;;;;;;;20.30;3.07;;;;;;;;;;4961271;29;20425;-76
2024/01/23 14:25:12;;;;;;;7.40;2.27;;;;;;;;;;4962767;29;20421;-77
2024/01/23 14:27:39;;;;;;;7.30;2.60;;;;;;;;;;4961888;29;20433;-76
2024/01/23 14:30:08;;;;;;;6.70;3.20;;;;;;;;;;4964048;28;20416;-77
2024/01/23 14:32:34;;;;;;;17.07;5.17;;;;;;;;;;4966281;28;20523;-77
2024/01/23 14:35:00;;;;;;;14.43;3.80;;;;;;;;;;4967481;29;20409;-77
2024/01/23 14:37:25;;;;;;;13.97;3.87;;;;;;;;;;4964715;29;20987;-76
2024/01/23 14:39:55;;;;;;;7.97;3.20;;;;;;;;;;4963976;29;20404;-77
2024/01/23 14:42:21;;;;;;;18.17;4.00;;;;;;;;;;4962945;29;20437;-77
2024/01/23 14:44:47;;;;;;;8.53;3.70;;;;;;;;;;4959170;29;20756;-73
2024/01/23 14:47:12;;;;;;;14.37;3.47;;;;;;;;;;4957752;29;20413;-73
2024/01/23 14:49:38;;;;;;;9.53;3.47;;;;;;;;;;4957139;29;20472;-76
2024/01/23 14:52:04;;;;;;;14.90;3.87;;;;;;;;;;4957100;29;20447;-75
2024/01/23 14:54:31;;;;;;;11.13;3.00;;;;;;;;;;4957675;29;20916;-74
2024/01/23 14:56:57;;;;;;;11.70;3.20;;;;;;;;;;4957412;28;20746;-72
2024/01/23 14:59:23;;;;;;;8.37;3.43;;;;;;;;;;4957766;29;20420;-73
2024/01/23 15:01:51;;;;;;;14.00;3.70;;;;;;;;;;4957903;29;20460;-73
2024/01/23 15:04:17;;;;;;;16.07;4.27;;;;;;;;;;4957549;28;20424;-74
2024/01/23 15:06:43;;;;;;;15.50;3.50;;;;;;;;;;4957033;29;20423;-73
2024/01/23 15:09:12;;;;;;;7.80;3.40;;;;;;;;;;4970888;28;20574;-74
2024/01/23 15:11:38;;;;;;;22.87;3.87;;;;;;;;;;4959102;28;20424;-74
2024/01/23 15:14:04;;;;;;;9.13;3.67;;;;;;;;;;4980052;28;20429;-73
2024/01/23 15:16:30;;;;;;;19.23;2.90;;;;;;;;;;4963869;29;20416;-73
2024/01/23 15:18:59;;;;;;;11.40;3.20;;;;;;;;;;4968718;29;20420;-74
2024/01/23 15:21:26;;;;;;;7.17;2.40;;;;;;;;;;4961758;29;20443;-74
2024/01/23 15:23:52;;;;;;;10.40;2.80;;;;;;;;;;4957869;29;20420;-73
2024/01/23 15:26:18;;;;;;;10.63;3.10;;;;;;;;;;4956979;29;20413;-74
2024/01/23 15:28:44;;;;;;;17.37;2.80;;;;;;;;;;4960217;29;20468;-75
2024/01/23 15:31:10;;;;;;;10.37;2.40;;;;;;;;;;4958504;29;20761;-75
2024/01/23 15:33:38;;;;;;;7.07;2.50;;;;;;;;;;4955975;29;20413;-73
2024/01/23 15:36:04;;;;;;;10.20;3.27;;;;;;;;;;4955835;28;20408;-74
2024/01/23 15:38:30;;;;;;;5.67;2.60;;;;;;;;;;4955515;29;20750;-76
2024/01/23 15:40:56;;;;;;;14.53;3.23;;;;;;;;;;4970013;28;20531;-76
2024/01/23 15:43:22;;;;;;;7.10;2.70;;;;;;;;;;4956136;28;20472;-75
2024/01/23 15:45:48;;;;;;;12.20;2.70;;;;;;;;;;4955436;29;20703;-75
2024/01/23 15:48:14;;;;;;;8.27;2.90;;;;;;;;;;4955245;29;20460;-75
2024/01/23 15:50:45;;;;;;;7.43;3.00;;;;;;;;;;4969949;28;20448;-74
2024/01/23 15:53:11;;;;;;;15.00;2.90;;;;;;;;;;4955475;28;20412;-75
2024/01/23 15:55:37;;;;;;;3.30;2.13;;;;;;;;;;4969942;28;20421;-74
2024/01/23 15:58:03;;;;;;;11.50;2.93;;;;;;;;;;4970104;28;20508;-76
2024/01/23 16:00:29;;;;;;;5.97;2.70;;;;;;;;;;4955050;29;20523;-75
2024/01/23 16:02:55;;;;;;;9.17;3.30;;;;;;;;;;4957517;29;20535;-75
2024/01/23 16:05:22;;;;;;;21.20;6.10;;;;;;;;;;4956378;29;20416;-76
2024/01/23 16:07:48;;;;;;;13.90;5.13;;;;;;;;;;4977925;28;20475;-76
2024/01/23 16:10:14;;;;;;;16.87;3.87;;;;;;;;;;4955681;29;20413;-77
2024/01/23 16:12:40;;;;;;;10.53;4.00;;;;;;;;;;4954029;29;20424;-77
2024/01/23 16:15:06;;;;;;;14.33;4.37;;;;;;;;;;4955393;29;20428;-77
2024/01/23 16:17:32;;;;;;;12.23;3.43;;;;;;;;;;4956409;29;20784;-78
2024/01/23 16:19:58;;;;;;;5.80;2.20;;;;;;;;;;4968658;28;20422;-77
2024/01/23 16:22:24;;;;;;;22.50;3.33;;;;;;;;;;4974545;28;20444;-77
2024/01/23 16:24:52;;;;;;;11.03;3.00;;;;;;;;;;4974865;28;20415;-77
2024/01/23 16:27:18;;;;;;;5.47;2.57;;;;;;;;;;4974314;28;20503;-76
2024/01/23 16:29:45;;;;;;;15.93;3.53;;;;;;;;;;4974140;28;20739;-77
2024/01/23 16:32:11;;;;;;;18.20;4.63;;;;;;;;;;4972565;28;20440;-77
2024/01/23 16:34:37;;;;;;;13.83;4.27;;;;;;;;;;4974585;28;20481;-75
2024/01/23 16:37:03;;;;;;;14.03;3.67;;;;;;;;;;4973491;28;20419;-75
2024/01/23 16:39:29;;;;;;;8.97;4.30;;;;;;;;;;4957788;28;20433;-76
2024/01/23 16:41:55;;;;;;;22.43;4.47;;;;;;;;;;4954488;28;20440;-75
2024/01/23 16:44:22;;;;;;;8.77;3.30;;;;;;;;;;4953741;28;20416;-77
2024/01/23 16:46:48;;;;;;;15.37;3.37;;;;;;;;;;4954951;28;20417;-76
2024/01/23 16:49:14;;;;;;;9.00;3.47;;;;;;;;;;4967015;28;20837;-77
2024/01/23 16:51:40;;;;;;;14.30;4.00;;;;;;;;;;4973619;28;20431;-76
2024/01/23 16:54:06;;;;;;;7.07;3.33;;;;;;;;;;4973473;28;20408;-77
2024/01/23 16:56:32;;;;;;;14.63;3.80;;;;;;;;;;4973994;28;20478;-77
2024/01/23 16:58:58;;;;;;;11.70;3.30;;;;;;;;;;4973687;28;20507;-77
2024/01/23 17:01:24;;;;;;;10.53;3.80;;;;;;;;;;4973782;28;20490;-74
2024/01/23 17:03:50;;;;;;;12.53;3.87;;;;;;;;;;4973849;28;20430;-78
2024/01/23 17:06:16;;;;;;;6.37;3.10;;;;;;;;;;4973991;28;20415;-77
2024/01/23 17:08:42;;;;;;;13.00;3.70;;;;;;;;;;4974408;28;20459;-76
2024/01/23 17:11:08;;;;;;;12.07;4.40;;;;;;;;;;4973489;28;20514;-76
2024/01/23 17:13:34;;;;;;;14.83;5.47;;;;;;;;;;4973962;28;20420;-78
2024/01/23 17:16:00;;;;;;;15.37;4.97;;;;;;;;;;4980354;28;20411;-76
2024/01/23 17:18:27;;;;;;;15.13;3.27;;;;;;;;;;4977646;28;20918;-77
2024/01/23 17:20:53;;;;;;;14.37;3.33;;;;;;;;;;4974248;28;20446;-77
2024/01/23 17:23:19;;;;;;;15.60;3.27;;;;;;;;;;4973869;28;20424;-77
2024/01/23 17:25:45;;;;;;;8.30;2.60;;;;;;;;;;4975737;28;20423;-77
2024/01/23 17:28:11;;;;;;;11.80;3.37;;;;;;;;;;4975472;28;20463;-77
2024/01/23 17:30:41;;;;;;;26.70;4.33;;;;;;;;;;4976636;28;20451;-77
2024/01/23 17:33:07;;;;;;;11.10;3.30;;;;;;;;;;4976172;28;20416;-77
2024/01/23 17:35:33;;;;;;;18.57;2.90;;;;;;;;;;4975780;28;20433;-77
2024/01/23 17:37:59;;;;;;;24.57;4.30;;;;;;;;;;4975225;28;20407;-76
2024/01/23 17:40:25;;;;;;;15.50;3.73;;;;;;;;;;4976065;28;20448;-77
2024/01/23 17:42:51;;;;;;;11.60;3.60;;;;;;;;;;4976616;28;20419;-77
2024/01/23 17:45:17;;;;;;;14.07;3.70;;;;;;;;;;4974668;28;20419;-77
2024/01/23 17:47:43;;;;;;;15.90;3.40;;;;;;;;;;4975690;28;20443;-77
2024/01/23 17:50:09;;;;;;;17.23;3.63;;;;;;;;;;4974951;28;20410;-77
2024/01/23 17:52:35;;;;;;;15.03;5.50;;;;;;;;;;4977469;28;20443;-77
2024/01/23 17:55:01;;;;;;;14.17;3.97;;;;;;;;;;4976105;28;20499;-77
2024/01/23 17:57:27;;;;;;;12.53;3.90;;;;;;;;;;4972874;28;20470;-77
2024/01/23 17:59:53;;;;;;;15.10;4.13;;;;;;;;;;4974336;28;20424;-77
2024/01/23 18:02:19;;;;;;;19.63;4.30;;;;;;;;;;4972887;28;20466;-77
2024/01/23 18:04:45;;;;;;;11.33;3.40;;;;;;;;;;4974916;28;20415;-76
2024/01/23 18:07:12;;;;;;;14.80;3.97;;;;;;;;;;4978629;28;20416;-77
2024/01/23 18:09:38;;;;;;;14.23;4.53;;;;;;;;;;4980980;28;20522;-79
2024/01/23 18:12:04;;;;;;;13.50;4.00;;;;;;;;;;4984468;28;20432;-79
2024/01/23 18:14:30;;;;;;;16.90;4.20;;;;;;;;;;4985999;28;20439;-79
2024/01/23 18:16:56;;;;;;;17.40;6.23;;;;;;;;;;4984206;28;20408;-79
2024/01/23 18:19:22;;;;;;;19.30;7.70;;;;;;;;;;4983962;28;20419;-78
2024/01/23 18:21:48;;;;;;;22.73;7.10;;;;;;;;;;4983745;28;20438;-78
2024/01/23 18:24:14;;;;;;;21.33;5.20;;;;;;;;;;4985101;28;20400;-78
2024/01/23 18:26:40;;;;;;;30.50;4.10;;;;;;;;;;4983347;28;20423;-78
2024/01/23 18:29:06;;;;;;;17.83;4.93;;;;;;;;;;4988148;28;20502;-78
2024/01/23 18:31:33;;;;;;;20.73;5.17;;;;;;;;;;4976861;28;20855;-78
2024/01/23 18:33:59;;;;;;;19.63;4.73;;;;;;;;;;4977659;28;20462;-77
2024/01/23 18:36:26;;;;;;;22.77;5.10;;;;;;;;;;4978381;28;20784;-77
2024/01/23 18:38:52;;;;;;;23.07;5.30;;;;;;;;;;4980008;28;20790;-78
2024/01/23 18:41:18;;;;;;;26.40;5.60;;;;;;;;;;4980435;28;20459;-78
2024/01/23 18:43:44;;;;;;;23.07;6.03;;;;;;;;;;4982325;28;20787;-78
2024/01/23 18:46:10;;;;;;;21.07;4.80;;;;;;;;;;4980971;28;20419;-78
2024/01/23 18:48:36;;;;;;;35.97;5.90;;;;;;;;;;4982874;28;20474;-78
2024/01/23 18:51:02;;;;;;;15.83;5.73;;;;;;;;;;4981655;28;20462;-78
2024/01/23 18:53:28;;;;;;;16.97;6.60;;;;;;;;;;4983683;28;20416;-78
2024/01/23 18:55:54;;;;;;;18.17;6.60;;;;;;;;;;4988783;28;20428;-77
2024/01/23 18:58:20;;;;;;;14.90;5.03;;;;;;;;;;4995764;28;20446;-77
2024/01/23 19:00:46;;;;;;;20.63;4.83;;;;;;;;;;4994552;28;20459;-77
2024/01/23 19:03:12;;;;;;;18.67;3.93;;;;;;;;;;4985190;28;20415;-77
2024/01/23 19:05:38;;;;;;;11.13;4.07;;;;;;;;;;4977550;28;20419;-78
2024/01/23 19:08:06;;;;;;;15.17;3.57;;;;;;;;;;4977506;28;20475;-77
2024/01/23 19:10:32;;;;;;;10.07;3.73;;;;;;;;;;4976868;28;20962;-78
2024/01/23 19:13:00;;;;;;;24.77;4.70;;;;;;;;;;4980068;28;20419;-78
2024/01/23 19:15:26;;;;;;;25.93;6.00;;;;;;;;;;4978582;28;20424;-78
2024/01/23 19:17:52;;;;;;;10.00;3.50;;;;;;;;;;4981186;28;20511;-78
2024/01/23 19:20:18;;;;;;;10.27;3.47;;;;;;;;;;4981455;28;20416;-78
2024/01/23 19:22:44;;;;;;;20.77;4.40;;;;;;;;;;4980352;28;20431;-78
2024/01/23 19:25:10;;;;;;;13.93;4.20;;;;;;;;;;4981471;28;20417;-78
2024/01/23 19:27:36;;;;;;;23.13;5.23;;;;;;;;;;4980853;28;20424;-78
2024/01/23 19:30:02;;;;;;;13.20;4.43;;;;;;;;;;4981397;28;20411;-78
2024/01/23 19:32:28;;;;;;;21.57;5.10;;;;;;;;;;4982281;28;20463;-78
2024/01/23 19:34:54;;;;;;;14.83;4.37;;;;;;;;;;4982795;28;20408;-78
2024/01/23 19:37:21;;;;;;;25.50;7.03;;;;;;;;;;4984977;28;20404;-78
2024/01/23 19:39:47;;;;;;;16.67;4.37;;;;;;;;;;4983233;28;20416;-78
2024/01/23 19:42:13;;;;;;;19.80;4.10;;;;;;;;;;4983720;28;20563;-78
2024/01/23 19:44:38;;;;;;;16.30;4.60;;;;;;;;;;4982121;28;20415;-78
2024/01/23 19:47:05;;;;;;;17.17;4.20;;;;;;;;;;4981705;28;20467;-77
2024/01/23 19:49:37;;;;;;;18.50;4.30;;;;;;;;;;4980884;28;20459;-78
2024/01/23 19:52:04;;;;;;;14.33;4.70;;;;;;;;;;4978961;28;20483;-78
2024/01/23 19:54:30;;;;;;;14.80;3.90;;;;;;;;;;4982188;28;20404;-78
2024/01/23 19:56:56;;;;;;;25.60;4.77;;;;;;;;;;4980057;28;20420;-79
2024/01/23 19:59:22;;;;;;;24.00;4.47;;;;;;;;;;4981149;28;20412;-78
2024/01/23 20:01:48;;;;;;;10.03;3.80;;;;;;;;;;4980008;28;20463;-77
2024/01/23 20:04:16;;;;;;;16.10;4.83;;;;;;;;;;4981870;28;20507;-78
2024/01/23 20:06:42;;;;;;;14.50;4.80;;;;;;;;;;4979503;28;20424;-78
2024/01/23 20:09:08;;;;;;;17.93;4.33;;;;;;;;;;4979786;28;21002;-78
2024/01/23 20:11:34;;;;;;;19.07;4.17;;;;;;;;;;4979787;28;20424;-78
2024/01/23 20:14:00;;;;;;;13.40;4.60;;;;;;;;;;4982116;28;20412;-78
2024/01/23 20:16:26;;;;;;;24.83;4.53;;;;;;;;;;4982623;28;20408;-77
2024/01/23 20:18:52;;;;;;;11.40;5.03;;;;;;;;;;4976850;28;20525;-78
2024/01/23 20:21:18;;;;;;;25.43;4.03;;;;;;;;;;4977362;28;20782;-78
2024/01/23 20:23:44;;;;;;;19.50;5.37;;;;;;;;;;4977063;28;20419;-78
2024/01/23 20:26:10;;;;;;;16.03;3.90;;;;;;;;;;4979560;28;20419;-78
2024/01/23 20:28:38;;;;;;;22.47;5.30;;;;;;;;;;4979612;28;20744;-78
2024/01/23 20:31:04;;;;;;;7.90;3.40;;;;;;;;;;4977089;28;20666;-77
2024/01/23 20:33:30;;;;;;;15.53;4.87;;;;;;;;;;4974794;28;20412;-78